Main page
METAR-TAF:

METAR-TAF

Airports :

Gloucestershire Airport

Gloucester, England

latitude: 51-54N, longitude: 002-10W, elevation: 29 m

Current weather observation

The report was made 43 minutes ago, at 12:50 UTC
Wind 5 kt from the South/Southwest
Temperature 10°C
Humidity 76%
Pressure 1016 hPa
Visibility 10 km or more
no clouds below 1500 m and no cumulonimbus

METAR: EGBJ 171250Z 20005KT CAVOK 10/06 Q1016

Time: 13:33 (13:33 UTC)

Forecast

The report was made 2 hours and 36 minutes ago, at 10:57 UTC
Forecast valid from 17 at 12 UTC to 17 at 20 UTC
Wind 6 kt from the South/Southwest
Visibility 10 km or more
Few clouds at a height of 4500 ft
Probability 30% :
Temporary
from 17 at 18 UTC to 17 at 20 UTC
Visibility: 8000 m
Broken clouds at a height of 1400 ft
light rain showers

TAF: EGBJ 171057Z 1712/1720 20006KT 9999 FEW045 PROB30 TEMPO 1718/1720 8000 -SHRA BKN014

Weather observations and forecasts of more than 4000 airports (METAR and TAF reports).

The available stations are represented by yellow and red dots on the map.

Hover mouse over dot to see the name of the station.

Then click to see weather observations and forecasts.

To change the map : click on the green buttons with a black cross to zoom in, on the green button with a dash to zoom out, or on the green arrows for adjacent maps.


METAR-TAF: